Time;durP1;ratioP1;P1;durP2;ratioP2;P2;SDS_P1;SDS_P2;PMS_P1;PMS_P2;Temp;Humidity;BMP_temperature;BMP_pressure;BME280_temperature;BME280_humidity;BME280_pressure;Samples;Min_cycle;Max_cycle;Signal;HPM_P1;HPM_P2
2023/04/19 00:05:38;;;;;;;26.10;17.50;;;;;;;9.77;95.47;99215.13;269730;1274;22566;-92
2023/04/19 00:12:42;;;;;;;;;;;;;;;9.76;95.45;99211.35;269778;1274;22688;-91
2023/04/19 00:20:29;;;;;;;29.50;19.70;;;;;;;9.61;94.71;99204.67;269415;1259;22548;-91
2023/04/19 00:28:38;;;;;;;26.60;19.60;;;;;;;9.51;95.55;99198.10;269380;1280;22441;-92
2023/04/19 00:35:30;;;;;;;35.20;21.40;;;;;;;9.49;96.23;99192.91;268103;1282;22564;-92
2023/04/19 00:42:14;;;;;;;;;;;;;;;;;;;;;
2023/04/19 00:48:49;;;;;;;29.60;21.40;;;;;;;9.53;97.35;99175.41;268902;1278;22560;-92
2023/04/19 00:55:44;;;;;;;30.40;19.60;;;;;;;9.47;97.49;99165.94;269008;1268;22546;-90
2023/04/19 01:03:21;;;;;;;28.10;19.10;;;;;;;9.50;98.62;99162.80;271149;1272;23330;-90
2023/04/19 01:10:20;;;;;;;27.80;19.30;;;;;;;9.57;98.94;99158.30;272699;1272;22411;-90
2023/04/19 01:17:31;;;;;;;35.60;22.50;;;;;;;9.48;98.46;99145.88;272327;1275;22211;-90
2023/04/19 01:24:49;;;;;;;33.10;21.10;;;;;;;9.39;99.15;99131.98;273315;1272;22384;-90
2023/04/19 01:31:53;;;;;;;31.80;22.20;;;;;;;9.42;99.98;99133.45;270474;1272;23448;-89
2023/04/19 01:39:09;;;;;;;28.70;20.90;;;;;;;9.42;99.37;99125.27;271308;1273;22603;-90
2023/04/19 01:46:07;;;;;;;30.10;20.50;;;;;;;9.42;100.00;99117.90;272090;1272;22373;-90
2023/04/19 01:54:02;;;;;;;;;;;;;;;;;;;;;
2023/04/19 02:08:59;;;;;;;28.70;19.00;;;;;;;9.52;100.00;99094.82;268684;1273;22636;-90
2023/04/19 02:15:23;;;;;;;31.50;20.70;;;;;;;9.48;100.00;99083.42;270149;1273;22353;-90
2023/04/19 02:22:25;;;;;;;35.70;22.70;;;;;;;9.40;100.00;99078.68;269356;1272;22772;-91
2023/04/19 02:30:14;;;;;;;37.00;22.30;;;;;;;9.20;100.00;99068.28;269660;1274;22650;-90
2023/04/19 02:52:33;;;;;;;40.50;25.00;;;;;;;9.03;100.00;99048.94;268706;1266;23594;-90
2023/04/19 02:59:20;;;;;;;36.80;24.50;;;;;;;9.01;100.00;99045.54;269687;1275;22229;-91
2023/04/19 03:07:19;;;;;;;34.00;23.20;;;;;;;8.95;100.00;99039.17;270340;1275;22548;-90
2023/04/19 03:21:57;;;;;;;42.10;25.10;;;;;;;8.94;100.00;99034.25;270966;1271;22577;-90
2023/04/19 03:29:00;;;;;;;48.20;28.60;;;;;;;8.95;100.00;99025.84;269810;1278;23502;-90
2023/04/19 03:37:13;;;;;;;43.70;27.40;;;;;;;8.86;100.00;99013.28;272410;1272;22651;-91
2023/04/19 03:43:28;;;;;;;47.80;28.80;;;;;;;8.75;100.00;99003.89;272988;1265;22849;-91
2023/04/19 03:50:28;;;;;;;37.20;25.30;;;;;;;8.70;100.00;99000.58;272923;1273;22263;-91
2023/04/19 03:58:17;;;;;;;41.60;27.20;;;;;;;8.65;100.00;99000.82;270148;1273;22568;-90
2023/04/19 04:05:43;;;;;;;42.60;27.50;;;;;;;8.65;100.00;98996.23;272167;1272;22302;-90
2023/04/19 04:12:56;;;;;;;47.80;32.20;;;;;;;8.59;100.00;98987.66;272449;1274;22672;-93
2023/04/19 04:20:16;;;;;;;47.50;30.60;;;;;;;8.55;100.00;98987.13;272900;1270;22721;-91
2023/04/19 04:27:29;;;;;;;43.70;28.00;;;;;;;8.66;100.00;98983.73;272805;1267;22169;-90
2023/04/19 04:35:21;;;;;;;29.60;19.50;;;;;;;8.67;100.00;98978.86;272447;1273;22328;-91
2023/04/19 04:42:38;;;;;;;28.20;19.60;;;;;;;8.62;100.00;98975.11;272239;1275;23084;-89
2023/04/19 04:50:05;;;;;;;26.90;18.50;;;;;;;8.58;100.00;98977.38;270966;1276;22215;-91
2023/04/19 04:56:22;;;;;;;28.70;17.80;;;;;;;8.57;100.00;98977.49;273048;1272;22467;-91
2023/04/19 05:03:02;;;;;;;23.70;16.10;;;;;;;8.59;100.00;98972.40;272572;1273;24222;-89
2023/04/19 05:17:34;;;;;;;25.80;17.10;;;;;;;8.53;100.00;98961.83;270388;1273;22636;-90
2023/04/19 05:25:38;;;;;;;21.20;15.80;;;;;;;8.51;100.00;98959.38;271175;1272;22190;-91
2023/04/19 05:32:59;;;;;;;28.50;18.10;;;;;;;8.56;100.00;98975.23;270631;1276;22784;-90
2023/04/19 05:40:47;;;;;;;24.40;17.50;;;;;;;8.60;100.00;98981.91;270548;1277;23400;-91
2023/04/19 05:48:51;;;;;;;22.70;15.60;;;;;;;8.54;100.00;98982.98;267224;1289;22559;-89
2023/04/19 05:56:18;;;;;;;21.50;14.60;;;;;;;8.42;100.00;98981.44;267474;1277;22211;-91
2023/04/19 06:11:26;;;;;;;22.30;14.70;;;;;;;8.41;100.00;98969.56;269309;1272;22551;-91
2023/04/19 06:18:09;;;;;;;24.40;16.60;;;;;;;8.43;100.00;98970.07;269209;1267;23820;-92
2023/04/19 06:25:23;;;;;;;21.20;15.10;;;;;;;8.46;100.00;98968.80;270015;1271;22546;-93
2023/04/19 06:32:30;;;;;;;23.20;16.90;;;;;;;8.48;100.00;98972.96;270263;1270;22376;-93
2023/04/19 06:39:37;;;;;;;23.70;15.40;;;;;;;8.48;100.00;98971.73;269939;1270;24032;-92
2023/04/19 06:47:05;;;;;;;20.90;15.40;;;;;;;8.51;100.00;98970.30;269963;1270;25344;-93
2023/04/19 06:54:59;;;;;;;19.30;14.30;;;;;;;8.54;100.00;98969.35;269117;1270;22951;-93
2023/04/19 07:01:57;;;;;;;24.50;16.00;;;;;;;8.58;100.00;98966.68;269612;1270;22606;-91
2023/04/19 07:09:25;;;;;;;19.50;14.70;;;;;;;8.62;100.00;98968.40;269909;1267;22498;-91
2023/04/19 07:24:44;;;;;;;;;;;;;;;;;;;;;
2023/04/19 07:32:11;;;;;;;22.10;15.70;;;;;;;8.73;100.00;98973.20;271106;1279;22579;-91
2023/04/19 07:39:24;;;;;;;20.60;15.80;;;;;;;8.75;100.00;98971.61;271204;1279;23327;-93
2023/04/19 07:47:28;;;;;;;17.80;13.20;;;;;;;8.74;100.00;98975.33;270996;1275;22242;-91
2023/04/19 07:55:14;;;;;;;11.30;7.60;;;;;;;8.38;100.00;98977.13;271415;1270;23216;-92
2023/04/19 08:03:08;;;;;;;11.90;6.50;;;;;;;7.95;100.00;98983.95;270049;1279;22599;-94
2023/04/19 08:10:54;;;;;;;8.30;6.10;;;;;;;7.74;100.00;98984.89;269653;1272;22692;-95
2023/04/19 08:19:04;;;;;;;8.20;5.40;;;;;;;7.64;100.00;98990.89;271471;1271;21895;-94
2023/04/19 08:26:27;;;;;;;8.10;5.00;;;;;;;7.54;100.00;98989.98;271215;1279;22695;-93
2023/04/19 08:34:14;;;;;;;8.30;5.20;;;;;;;7.61;100.00;98993.17;271223;1278;22895;-93
2023/04/19 08:42:17;;;;;;;10.90;7.70;;;;;;;7.69;100.00;98998.27;271881;1270;22955;-93
2023/04/19 08:50:00;;;;;;;10.40;7.40;;;;;;;7.76;100.00;99002.22;269293;1270;24203;-94
2023/04/19 08:58:00;;;;;;;10.60;5.30;;;;;;;7.72;100.00;99003.92;268976;1270;22519;-93
2023/04/19 09:04:58;;;;;;;6.80;4.90;;;;;;;7.65;100.00;99004.48;270951;1270;22206;-94
2023/04/19 09:11:41;;;;;;;10.80;5.90;;;;;;;7.68;100.00;99004.93;269346;1270;22204;-91
2023/04/19 09:18:29;;;;;;;33.90;24.60;;;;;;;7.76;100.00;99003.86;271067;1270;22548;-91
2023/04/19 09:25:25;;;;;;;19.20;9.60;;;;;;;7.81;100.00;99001.63;271015;1274;24308;-93
2023/04/19 09:40:27;;;;;;;9.90;5.30;;;;;;;7.73;100.00;99002.80;272034;1275;22608;-92
2023/04/19 09:48:23;;;;;;;7.80;5.20;;;;;;;7.76;100.00;99000.21;270920;1274;23069;-92
2023/04/19 09:55:15;;;;;;;10.90;5.90;;;;;;;7.80;100.00;99004.88;268183;1282;23460;-93
2023/04/19 10:02:57;;;;;;;11.30;6.10;;;;;;;7.85;100.00;99007.80;268700;1276;22579;-89
2023/04/19 10:10:29;;;;;;;;;;;;;;;;;;;;;
2023/04/19 10:17:46;;;;;;;18.30;10.80;;;;;;;7.86;100.00;99006.73;268536;1285;22585;-88
2023/04/19 10:24:39;;;;;;;9.70;6.30;;;;;;;7.93;100.00;99006.80;269843;1286;22279;-94
2023/04/19 10:31:43;;;;;;;8.40;5.20;;;;;;;8.02;100.00;99006.99;271507;1273;22243;-92
2023/04/19 10:39:09;;;;;;;14.60;11.40;;;;;;;8.09;100.00;99006.35;273033;1271;22177;-91
2023/04/19 10:45:50;;;;;;;12.00;8.60;;;;;;;8.21;100.00;99005.85;271381;1270;23781;-91
2023/04/19 10:53:17;;;;;;;11.70;7.10;;;;;;;8.42;100.00;99000.36;271500;1256;22543;-91
2023/04/19 11:01:10;;;;;;;8.00;5.90;;;;;;;8.62;100.00;98998.57;269606;1271;22563;-91
2023/04/19 11:07:26;;;;;;;8.70;5.40;;;;;;;8.91;100.00;98993.02;268544;1274;23264;-90
2023/04/19 11:13:37;;;;;;;6.70;5.10;;;;;;;9.11;100.00;98982.69;268404;1274;23235;-87
2023/04/19 11:43:56;;;;;;;7.70;5.90;;;;;;;9.24;100.00;98985.46;269147;1274;22581;-90
2023/04/19 11:50:41;;;;;;;9.90;6.80;;;;;;;9.26;100.00;98986.90;270662;1275;22354;-91
2023/04/19 11:56:58;;;;;;;9.90;7.00;;;;;;;9.23;100.00;99000.34;271758;1275;22553;-90
2023/04/19 12:03:13;;;;;;;9.60;7.20;;;;;;;9.02;100.00;99006.71;269499;1274;22632;-90
2023/04/19 12:09:44;;;;;;;10.30;7.50;;;;;;;8.94;100.00;99013.17;268917;1272;22347;-90
2023/04/19 12:17:55;;;;;;;9.10;7.70;;;;;;;8.92;100.00;99017.22;267726;1276;22605;-90
2023/04/19 12:32:16;;;;;;;9.50;7.30;;;;;;;8.98;100.00;99018.88;267396;1280;22544;-92
2023/04/19 12:38:32;;;;;;;13.20;8.20;;;;;;;8.95;100.00;99015.54;267748;1270;22685;-91
2023/04/19 12:44:50;;;;;;;13.30;8.00;;;;;;;8.97;100.00;99013.86;268002;1279;22667;-91
2023/04/19 12:51:32;;;;;;;10.90;8.00;;;;;;;8.93;100.00;99016.92;268533;1274;23229;-91
2023/04/19 12:57:49;;;;;;;15.10;8.70;;;;;;;8.91;100.00;99015.02;267919;1275;22527;-91
2023/04/19 13:04:14;;;;;;;20.10;11.00;;;;;;;8.88;100.00;99012.48;268496;1270;22596;-90
2023/04/19 13:11:39;;;;;;;18.90;10.00;;;;;;;8.82;100.00;99012.67;270553;1272;22931;-91
2023/04/19 13:17:48;;;;;;;11.50;9.10;;;;;;;8.87;100.00;99012.45;270586;1270;25516;-91
2023/04/19 13:24:58;;;;;;;17.10;9.60;;;;;;;8.93;100.00;99011.77;269252;1271;22571;-91
2023/04/19 13:32:15;;;;;;;28.50;13.90;;;;;;;8.92;100.00;99011.20;268739;1272;22718;-90
2023/04/19 13:39:28;;;;;;;20.40;10.00;;;;;;;8.91;100.00;99016.34;269409;1271;23173;-92
2023/04/19 13:46:41;;;;;;;16.70;9.80;;;;;;;8.97;100.00;99014.72;269913;1271;23312;-90
2023/04/19 13:52:57;;;;;;;13.70;9.00;;;;;;;9.06;100.00;99008.89;270899;1271;22451;-92
2023/04/19 13:59:36;;;;;;;21.40;9.60;;;;;;;9.11;100.00;99005.91;271759;1271;22709;-90
2023/04/19 14:06:06;;;;;;;14.30;9.10;;;;;;;9.18;100.00;99004.32;269720;1271;22546;-90
2023/04/19 14:12:09;;;;;;;14.00;8.30;;;;;;;9.23;100.00;99004.41;270938;1271;22371;-91
2023/04/19 14:19:02;;;;;;;19.40;10.90;;;;;;;9.26;100.00;99001.71;270788;1271;22562;-89
2023/04/19 14:25:23;;;;;;;15.20;9.10;;;;;;;9.21;100.00;98998.67;272226;1271;22368;-92
2023/04/19 14:32:20;;;;;;;16.30;9.40;;;;;;;9.31;100.00;99000.32;272288;1270;22898;-91
2023/04/19 14:39:13;;;;;;;13.90;9.70;;;;;;;9.55;100.00;98999.77;272690;1270;22312;-90
2023/04/19 14:45:55;;;;;;;;;;;;;;;;;;;;;
2023/04/19 14:52:53;;;;;;;13.60;9.70;;;;;;;9.73;100.00;99008.23;270220;1271;22373;-91
2023/04/19 14:59:51;;;;;;;13.10;9.60;;;;;;;9.83;100.00;99009.38;269207;1255;22535;-91
2023/04/19 15:07:28;;;;;;;13.90;9.40;;;;;;;9.91;100.00;99017.39;269428;1270;25298;-91
2023/04/19 15:13:52;;;;;;;10.40;8.20;;;;;;;9.93;100.00;99018.05;269628;1270;22649;-93
2023/04/19 15:20:00;;;;;;;14.90;9.80;;;;;;;9.97;100.00;99021.52;270482;1270;22629;-92
2023/04/19 15:26:37;;;;;;;18.30;10.40;;;;;;;9.90;100.00;99027.86;269123;1274;22771;-91
2023/04/19 15:33:18;;;;;;;14.20;9.10;;;;;;;9.81;100.00;99031.63;269206;1275;22566;-92
2023/04/19 15:40:23;;;;;;;12.80;7.90;;;;;;;9.80;100.00;99037.30;268419;1279;22732;-92
2023/04/19 15:46:39;;;;;;;12.90;8.70;;;;;;;9.77;100.00;99039.07;270114;1280;22778;-91
2023/04/19 15:53:31;;;;;;;12.70;9.30;;;;;;;9.82;100.00;99043.34;270324;1278;22276;-92
2023/04/19 16:00:15;;;;;;;22.30;12.40;;;;;;;9.83;100.00;99045.16;270970;1272;22591;-92
2023/04/19 16:06:55;;;;;;;18.70;10.00;;;;;;;9.75;100.00;99050.05;272142;1272;23368;-91
2023/04/19 16:13:23;;;;;;;11.70;8.90;;;;;;;9.70;100.00;99055.13;269213;1272;22553;-93
2023/04/19 16:19:53;;;;;;;13.20;9.40;;;;;;;9.66;100.00;99055.54;270410;1272;22403;-92
2023/04/19 16:27:13;;;;;;;15.90;9.40;;;;;;;9.58;100.00;99055.09;270526;1272;22538;-93
2023/04/19 16:41:48;;;;;;;14.10;8.90;;;;;;;9.46;100.00;99066.22;273072;1272;22287;-93
2023/04/19 16:48:13;;;;;;;14.60;8.30;;;;;;;9.36;100.00;99070.20;270822;1272;22554;-91
2023/04/19 16:54:42;;;;;;;16.10;8.80;;;;;;;9.27;100.00;99075.04;270276;1271;22521;-91
2023/04/19 17:01:57;;;;;;;;;;;;;;;;;;;;;
2023/04/19 17:08:32;;;;;;;12.80;9.40;;;;;;;9.25;100.00;99082.70;271311;1270;22959;-90
2023/04/19 17:15:05;;;;;;;14.80;10.00;;;;;;;9.22;100.00;99091.49;271164;1270;22666;-91
2023/04/19 17:23:15;;;;;;;;;;;;;;;;;;;;;
2023/04/19 17:29:51;;;;;;;26.80;17.40;;;;;;;9.00;100.00;99102.39;272664;1271;22348;-90
2023/04/19 17:36:25;;;;;;;30.60;21.00;;;;;;;8.93;100.00;99105.93;272300;1272;23806;-89
2023/04/19 17:43:00;;;;;;;31.70;20.10;;;;;;;8.86;100.00;99108.45;271103;1272;22598;-92
2023/04/19 17:50:07;;;;;;;45.00;25.80;;;;;;;8.79;100.00;99112.36;270012;1278;23314;-90
2023/04/19 17:57:20;;;;;;;37.60;22.70;;;;;;;8.76;100.00;99118.38;270652;1273;23376;-91
2023/04/19 18:04:34;;;;;;;;;;;;;;;;;;;;;
2023/04/19 18:10:46;;;;;;;40.80;24.30;;;;;;;8.75;100.00;99138.48;271718;1271;22332;-91
2023/04/19 18:17:32;;;;;;;46.80;25.00;;;;;;;8.69;100.00;99145.98;271397;1275;22535;-91
2023/04/19 18:24:14;;;;;;;38.90;24.90;;;;;;;8.69;100.00;99154.24;270949;1266;22564;-90
2023/04/19 18:31:22;;;;;;;45.00;25.10;;;;;;;8.70;100.00;99158.33;269442;1278;23770;-91
2023/04/19 18:38:30;;;;;;;51.40;29.70;;;;;;;8.65;100.00;99166.33;271844;1278;23503;-91
2023/04/19 18:44:39;;;;;;;47.90;27.60;;;;;;;8.59;100.00;99169.25;271771;1278;22187;-91
2023/04/19 18:51:00;;;;;;;;;;;;;;;;;;;;;
2023/04/19 18:58:12;;;;;;;45.40;28.30;;;;;;;8.58;100.00;99178.97;272011;1277;22533;-90
2023/04/19 19:04:24;;;;;;;43.90;28.30;;;;;;;8.55;100.00;99177.95;271748;1277;25290;-91
2023/04/19 19:11:07;;;;;;;45.00;28.60;;;;;;;8.53;100.00;99184.46;272232;1276;22238;-92
2023/04/19 19:34:01;;;;;;;;;;;;;;;;;;;;;
2023/04/19 19:47:39;;;;;;;59.80;36.70;;;;;;;8.48;100.00;99194.19;272269;1275;22510;-92
2023/04/19 19:54:17;;;;;;;67.90;39.20;;;;;;;8.41;100.00;99194.18;271841;1272;22566;-90
2023/04/19 20:00:55;;;;;;;57.60;37.40;;;;;;;8.32;100.00;99194.43;271079;1275;22201;-90
2023/04/19 20:08:03;;;;;;;60.80;37.80;;;;;;;8.19;100.00;99194.02;270002;1271;22591;-90
2023/04/19 20:22:56;;;;;;;55.10;34.30;;;;;;;8.05;100.00;99193.55;271169;1272;23045;-90
2023/04/19 20:37:16;;;;;;;52.30;34.20;;;;;;;7.83;100.00;99200.85;268178;1291;23380;-90
2023/04/19 20:43:31;;;;;;;62.10;38.20;;;;;;;7.68;100.00;99197.42;269467;1280;22613;-90
2023/04/19 20:50:27;;;;;;;64.40;37.80;;;;;;;7.49;100.00;99201.09;270174;1279;22564;-89
2023/04/19 20:57:25;;;;;;;51.60;33.80;;;;;;;7.38;100.00;99207.08;270207;1275;22418;-90
2023/04/19 21:10:45;;;;;;;64.00;35.80;;;;;;;7.25;100.00;99207.73;271670;1274;22780;-91
2023/04/19 21:16:58;;;;;;;72.40;40.80;;;;;;;7.32;100.00;99204.59;269422;1276;24209;-91
2023/04/19 21:23:43;;;;;;;77.20;44.10;;;;;;;7.39;100.00;99209.65;269831;1276;23407;-91
2023/04/19 21:30:01;;;;;;;81.80;45.90;;;;;;;7.43;100.00;99209.77;269404;1273;22547;-91
2023/04/19 21:37:12;;;;;;;86.70;48.10;;;;;;;7.46;100.00;99206.98;269452;1277;22560;-91
2023/04/19 21:44:07;;;;;;;80.60;46.70;;;;;;;7.50;100.00;99207.02;270785;1275;24229;-89
2023/04/19 21:50:51;;;;;;;82.90;44.30;;;;;;;7.50;100.00;99205.46;269674;1272;22733;-90
2023/04/19 21:57:24;;;;;;;79.10;43.70;;;;;;;7.51;100.00;99205.95;269882;1270;22358;-89
2023/04/19 22:04:55;;;;;;;88.90;48.50;;;;;;;7.51;100.00;99204.70;270243;1270;27514;-91
2023/04/19 22:11:18;;;;;;;86.70;48.00;;;;;;;7.49;100.00;99203.02;270632;1272;23193;-89
2023/04/19 22:17:44;;;;;;;80.10;47.60;;;;;;;7.51;100.00;99206.73;270661;1271;22642;-90
2023/04/19 22:24:09;;;;;;;81.70;46.10;;;;;;;7.54;100.00;99209.60;269938;1273;22531;-90
2023/04/19 22:30:42;;;;;;;75.80;44.00;;;;;;;7.57;100.00;99212.33;271102;1272;22514;-91
2023/04/19 22:37:23;;;;;;;79.60;45.10;;;;;;;7.59;100.00;99207.32;269386;1271;23756;-90
2023/04/19 22:43:36;;;;;;;81.00;45.80;;;;;;;7.59;100.00;99202.56;269578;1270;22951;-90
2023/04/19 22:49:40;;;;;;;84.50;47.30;;;;;;;7.61;100.00;99205.36;269029;1271;22615;-91
2023/04/19 22:56:04;;;;;;;80.60;43.40;;;;;;;7.63;100.00;99205.25;270500;1270;23994;-90
2023/04/19 23:03:10;;;;;;;84.30;46.30;;;;;;;7.64;100.00;99205.80;270762;1273;22564;-92
2023/04/19 23:09:45;;;;;;;93.60;49.40;;;;;;;7.64;100.00;99205.74;270478;1274;22219;-91
2023/04/19 23:17:03;;;;;;;91.30;51.40;;;;;;;7.56;100.00;99200.86;270507;1271;22509;-91
2023/04/19 23:23:26;;;;;;;93.90;50.00;;;;;;;7.51;100.00;99195.67;268820;1271;24722;-91
2023/04/19 23:30:47;;;;;;;;;;;;;;;;;;;;;
2023/04/19 23:37:33;;;;;;;85.80;46.10;;;;;;;7.51;100.00;99190.69;269939;1263;23184;-90
2023/04/19 23:44:43;;;;;;;88.90;47.00;;;;;;;7.49;100.00;99189.16;269571;1270;23996;-90
2023/04/19 23:51:11;;;;;;;81.20;45.80;;;;;;;7.43;100.00;99191.42;270191;1270;22543;-90
2023/04/19 23:58:08;;;;;;;89.50;47.90;;;;;;;7.35;100.00;99189.80;269903;1267;25404;-91
